This is the latest recevied weather packets stored in our database for station/object EB2GLU-13. If no packets are shown the sender has not sent any weather packets the latest 10 day(s).
| Time | Temp. | Humidity | Pressure | Rain* | Wind** | Luminosity | Snow |
|---|---|---|---|---|---|---|---|
| 1777828486 | 20.56° C | 74% | 1010.1 hPa | 0 mm | - | - | - |
| 1777827736 | 21.67° C | 67% | 1009.7 hPa | 0 mm | - | - | - |
| 1777826986 | 21.67° C | 66% | 1009.8 hPa | 0 mm | - | - | - |
| 1777826236 | 22.22° C | 67% | 1009.9 hPa | 0 mm | - | - | - |
| 1777825486 | 21.67° C | 66% | 1009.7 hPa | 0 mm | - | - | - |
| 1777824736 | 22.22° C | 69% | 1009.6 hPa | 0 mm | - | - | - |
| 1777823986 | 22.22° C | 67% | 1009.8 hPa | 0 mm | - | - | - |
| 1777823236 | 22.22° C | 68% | 1009.7 hPa | 0 mm | - | - | - |
| 1777822486 | 21.67° C | 70% | 1010 hPa | 0 mm | - | - | - |
| 1777821736 | 22.22° C | 71% | 1010.1 hPa | 0 mm | - | - | - |
| 1777820986 | 21.67° C | 76% | 1010.7 hPa | 0 mm | - | - | - |
| 1777820236 | 20° C | 80% | 1010.8 hPa | 0 mm | - | - | - |
| 1777819486 | 18.33° C | 83% | 1011 hPa | 0 mm | - | - | - |
| 1777818736 | 18.89° C | 83% | 1011.6 hPa | 0 mm | - | - | - |
| 1777817986 | 19.44° C | 81% | 1011.7 hPa | 0 mm | - | - | - |
| 1777817236 | 19.44° C | 80% | 1011.5 hPa | 0.25 mm | - | - | - |
| 1777816486 | 19.44° C | 79% | 1011.4 hPa | 0.76 mm | - | - | - |
| 1777815736 | 20.56° C | 80% | 1011.8 hPa | 1.02 mm | - | - | - |
| 1777814986 | 18.89° C | 83% | 1012.1 hPa | 1.02 mm | - | - | - |
| 1777814236 | 17.78° C | 87% | 1011.9 hPa | 1.02 mm | - | - | - |
| 1777813486 | 17.22° C | 84% | 1012.3 hPa | 0.76 mm | - | - | - |
| 1777812736 | 17.78° C | 83% | 1012.2 hPa | 0.25 mm | - | - | - |
| 1777811986 | 18.89° C | 77% | 1012.1 hPa | 0 mm | - | - | - |
| 1777811235 | 20° C | 71% | 1011.9 hPa | 0 mm | - | - | - |
| 1777810486 | 20.56° C | 68% | 1012.1 hPa | 0 mm | - | - | - |
* Rain latest hour (hover to see other rain measurements)
** Current wind speed in m/s (hover to see current wind gust speed)